Terminal Aerodrome Forecast
Issued by NWS Amarillo, TX

Home | Current Version | Previous Version | Text Only | Print | Product List | Glossary On
Versions: 1 2 3 4 5 6 7 8 9 10 11 12 13 14
610
FTUS44 KAMA 261720
TAFGUY
TAF
KGUY 261720Z 2618/2718 21016G26KT P6SM FEW090
     FM270200 22012KT P6SM SKC
     FM270500 29012KT P6SM SKC=

USA.gov is the U.S. government's official web portal to all federal, state and local government web resources and services.